sensor_id;sensor_type;location;lat;lon;timestamp;pressure;altitude;pressure_sealevel;temperature;humidity
10652;BME280;5374;42.742;23.266;2023-07-02T00:01:18;94781.34;;;19.49;100.00
10652;BME280;5374;42.742;23.266;2023-07-02T00:04:06;94787.06;;;19.56;100.00
10652;BME280;5374;42.742;23.266;2023-07-02T00:06:56;94786.47;;;19.51;100.00
10652;BME280;5374;42.742;23.266;2023-07-02T00:09:43;94779.63;;;19.53;100.00
10652;BME280;5374;42.742;23.266;2023-07-02T00:12:31;94783.91;;;19.45;100.00
10652;BME280;5374;42.742;23.266;2023-07-02T00:15:19;94774.13;;;19.41;100.00
10652;BME280;5374;42.742;23.266;2023-07-02T00:18:06;94771.53;;;19.44;100.00
10652;BME280;5374;42.742;23.266;2023-07-02T00:20:53;94775.34;;;19.43;100.00
10652;BME280;5374;42.742;23.266;2023-07-02T00:23:40;94779.94;;;19.43;100.00
10652;BME280;5374;42.742;23.266;2023-07-02T00:26:27;94779.19;;;19.42;100.00
10652;BME280;5374;42.742;23.266;2023-07-02T00:29:16;94766.69;;;19.38;100.00
10652;BME280;5374;42.742;23.266;2023-07-02T00:32:05;94779.19;;;19.42;100.00
10652;BME280;5374;42.742;23.266;2023-07-02T00:34:52;94777.63;;;19.33;100.00
10652;BME280;5374;42.742;23.266;2023-07-02T00:37:39;94801.03;;;19.41;100.00
10652;BME280;5374;42.742;23.266;2023-07-02T00:40:26;94795.34;;;19.34;100.00
10652;BME280;5374;42.742;23.266;2023-07-02T00:43:15;94800.56;;;19.39;100.00
10652;BME280;5374;42.742;23.266;2023-07-02T00:46:04;94802.78;;;19.37;100.00
10652;BME280;5374;42.742;23.266;2023-07-02T00:48:52;94817.34;;;19.36;100.00
10652;BME280;5374;42.742;23.266;2023-07-02T00:51:39;94815.94;;;19.30;100.00
10652;BME280;5374;42.742;23.266;2023-07-02T00:54:27;94810.25;;;19.31;100.00
10652;BME280;5374;42.742;23.266;2023-07-02T00:57:15;94812.47;;;19.29;100.00
10652;BME280;5374;42.742;23.266;2023-07-02T01:00:02;94817.34;;;19.36;100.00
10652;BME280;5374;42.742;23.266;2023-07-02T01:02:56;94816.25;;;19.37;100.00
10652;BME280;5374;42.742;23.266;2023-07-02T01:05:44;94794.09;;;19.31;100.00
10652;BME280;5374;42.742;23.266;2023-07-02T01:08:32;94754.22;;;18.99;100.00
10652;BME280;5374;42.742;23.266;2023-07-02T01:11:19;94804.84;;;19.31;100.00
10652;BME280;5374;42.742;23.266;2023-07-02T01:14:11;94796.63;;;19.28;100.00
10652;BME280;5374;42.742;23.266;2023-07-02T01:17:01;94784.75;;;19.29;100.00
10652;BME280;5374;42.742;23.266;2023-07-02T01:19:52;94787.13;;;19.22;100.00
10652;BME280;5374;42.742;23.266;2023-07-02T01:22:40;94774.00;;;19.20;100.00
10652;BME280;5374;42.742;23.266;2023-07-02T01:25:27;94773.03;;;19.25;100.00
10652;BME280;5374;42.742;23.266;2023-07-02T01:28:15;94762.25;;;19.25;100.00
10652;BME280;5374;42.742;23.266;2023-07-02T01:31:03;94723.03;;;19.15;100.00
10652;BME280;5374;42.742;23.266;2023-07-02T01:33:51;94738.06;;;19.16;100.00
10652;BME280;5374;42.742;23.266;2023-07-02T01:36:40;94745.84;;;19.18;100.00
10652;BME280;5374;42.742;23.266;2023-07-02T01:39:27;94773.66;;;19.30;100.00
10652;BME280;5374;42.742;23.266;2023-07-02T01:42:16;94756.28;;;19.10;100.00
10652;BME280;5374;42.742;23.266;2023-07-02T01:45:04;94772.13;;;19.03;100.00
10652;BME280;5374;42.742;23.266;2023-07-02T01:47:51;94741.13;;;18.80;100.00
10652;BME280;5374;42.742;23.266;2023-07-02T01:50:38;94766.44;;;18.96;100.00
10652;BME280;5374;42.742;23.266;2023-07-02T01:53:30;94759.97;;;18.97;100.00
10652;BME280;5374;42.742;23.266;2023-07-02T01:56:17;94752.84;;;18.93;100.00
10652;BME280;5374;42.742;23.266;2023-07-02T01:59:04;94753.47;;;18.90;100.00
10652;BME280;5374;42.742;23.266;2023-07-02T02:01:51;94732.91;;;18.85;100.00
10652;BME280;5374;42.742;23.266;2023-07-02T02:04:40;94745.56;;;18.85;100.00
10652;BME280;5374;42.742;23.266;2023-07-02T02:07:27;94751.09;;;18.79;100.00
10652;BME280;5374;42.742;23.266;2023-07-02T02:10:16;94760.59;;;18.77;100.00
10652;BME280;5374;42.742;23.266;2023-07-02T02:13:03;94751.88;;;18.80;100.00
10652;BME280;5374;42.742;23.266;2023-07-02T02:15:50;94752.06;;;18.75;100.00
10652;BME280;5374;42.742;23.266;2023-07-02T02:18:37;94735.75;;;18.80;100.00
10652;BME280;5374;42.742;23.266;2023-07-02T02:21:24;94725.81;;;18.72;100.00
10652;BME280;5374;42.742;23.266;2023-07-02T02:24:12;94727.88;;;18.75;100.00
10652;BME280;5374;42.742;23.266;2023-07-02T02:27:02;94735.91;;;18.49;100.00
10652;BME280;5374;42.742;23.266;2023-07-02T02:29:50;94726.72;;;18.24;100.00
10652;BME280;5374;42.742;23.266;2023-07-02T02:32:37;94723.22;;;18.32;100.00
10652;BME280;5374;42.742;23.266;2023-07-02T02:35:24;94712.78;;;18.31;100.00
10652;BME280;5374;42.742;23.266;2023-07-02T02:38:14;94721.50;;;18.36;100.00
10652;BME280;5374;42.742;23.266;2023-07-02T02:41:01;94704.75;;;18.22;100.00
10652;BME280;5374;42.742;23.266;2023-07-02T02:43:50;94716.94;;;18.28;100.00
10652;BME280;5374;42.742;23.266;2023-07-02T02:46:37;94721.50;;;18.28;100.00
10652;BME280;5374;42.742;23.266;2023-07-02T02:49:24;94726.25;;;18.31;100.00
10652;BME280;5374;42.742;23.266;2023-07-02T02:52:11;94740.63;;;18.35;100.00
10652;BME280;5374;42.742;23.266;2023-07-02T02:55:00;94736.38;;;18.42;100.00
10652;BME280;5374;42.742;23.266;2023-07-02T02:57:47;94737.81;;;18.49;100.00
10652;BME280;5374;42.742;23.266;2023-07-02T03:00:36;94745.38;;;18.55;100.00
10652;BME280;5374;42.742;23.266;2023-07-02T03:03:24;94749.06;;;18.59;100.00
10652;BME280;5374;42.742;23.266;2023-07-02T03:06:12;94749.97;;;18.55;100.00
10652;BME280;5374;42.742;23.266;2023-07-02T03:09:00;94743.66;;;18.51;100.00
10652;BME280;5374;42.742;23.266;2023-07-02T03:11:47;94732.91;;;18.51;100.00
10652;BME280;5374;42.742;23.266;2023-07-02T03:14:36;94733.84;;;18.55;100.00
10652;BME280;5374;42.742;23.266;2023-07-02T03:17:25;94745.84;;;18.57;100.00
10652;BME280;5374;42.742;23.266;2023-07-02T03:20:12;94754.59;;;18.63;100.00
10652;BME280;5374;42.742;23.266;2023-07-02T03:22:59;94763.94;;;18.74;100.00
10652;BME280;5374;42.742;23.266;2023-07-02T03:25:47;94768.97;;;18.84;100.00
10652;BME280;5374;42.742;23.266;2023-07-02T03:28:34;94771.69;;;18.93;100.00
10652;BME280;5374;42.742;23.266;2023-07-02T03:31:21;94775.59;;;19.04;100.00
10652;BME280;5374;42.742;23.266;2023-07-02T03:34:10;94774.66;;;19.08;100.00
10652;BME280;5374;42.742;23.266;2023-07-02T03:36:57;94762.91;;;19.22;100.00
10652;BME280;5374;42.742;23.266;2023-07-02T03:39:44;94748.97;;;19.28;100.00
10652;BME280;5374;42.742;23.266;2023-07-02T03:42:32;94769.19;;;19.52;100.00
10652;BME280;5374;42.742;23.266;2023-07-02T03:45:20;94757.28;;;19.61;100.00
10652;BME280;5374;42.742;23.266;2023-07-02T03:48:07;94757.31;;;19.53;100.00
10652;BME280;5374;42.742;23.266;2023-07-02T03:50:55;94764.19;;;19.71;100.00
10652;BME280;5374;42.742;23.266;2023-07-02T03:53:43;94757.53;;;19.77;100.00
10652;BME280;5374;42.742;23.266;2023-07-02T03:56:30;94743.09;;;19.82;100.00
10652;BME280;5374;42.742;23.266;2023-07-02T03:59:17;94758.88;;;19.92;100.00
10652;BME280;5374;42.742;23.266;2023-07-02T04:02:05;94759.50;;;19.89;100.00
10652;BME280;5374;42.742;23.266;2023-07-02T04:04:52;94772.97;;;19.97;100.00
10652;BME280;5374;42.742;23.266;2023-07-02T04:07:40;94770.72;;;19.99;100.00
10652;BME280;5374;42.742;23.266;2023-07-02T04:10:28;94785.00;;;20.00;100.00
10652;BME280;5374;42.742;23.266;2023-07-02T04:13:15;94782.31;;;20.00;100.00
10652;BME280;5374;42.742;23.266;2023-07-02T04:16:02;94789.75;;;20.03;100.00
10652;BME280;5374;42.742;23.266;2023-07-02T04:18:49;94791.66;;;20.02;100.00
10652;BME280;5374;42.742;23.266;2023-07-02T04:21:36;94792.91;;;20.05;100.00
10652;BME280;5374;42.742;23.266;2023-07-02T04:24:25;94796.06;;;20.07;100.00
10652;BME280;5374;42.742;23.266;2023-07-02T04:27:12;94797.81;;;20.03;100.00
10652;BME280;5374;42.742;23.266;2023-07-02T04:29:59;94801.78;;;20.05;100.00
10652;BME280;5374;42.742;23.266;2023-07-02T04:32:46;94801.47;;;20.07;100.00
10652;BME280;5374;42.742;23.266;2023-07-02T04:35:34;94808.22;;;20.13;100.00
10652;BME280;5374;42.742;23.266;2023-07-02T04:38:21;94805.06;;;20.11;100.00
10652;BME280;5374;42.742;23.266;2023-07-02T04:41:09;94794.03;;;20.04;100.00
10652;BME280;5374;42.742;23.266;2023-07-02T04:43:57;94829.59;;;20.27;100.00
10652;BME280;5374;42.742;23.266;2023-07-02T04:46:44;94826.72;;;20.32;100.00
10652;BME280;5374;42.742;23.266;2023-07-02T04:49:31;94823.72;;;20.25;100.00
10652;BME280;5374;42.742;23.266;2023-07-02T04:52:18;94814.81;;;20.33;100.00
10652;BME280;5374;42.742;23.266;2023-07-02T04:55:05;94827.13;;;20.42;100.00
10652;BME280;5374;42.742;23.266;2023-07-02T04:57:54;94832.50;;;20.51;100.00
10652;BME280;5374;42.742;23.266;2023-07-02T05:00:41;94835.56;;;20.62;100.00
10652;BME280;5374;42.742;23.266;2023-07-02T05:03:28;94825.84;;;20.69;100.00
10652;BME280;5374;42.742;23.266;2023-07-02T05:06:15;94809.38;;;20.62;100.00
10652;BME280;5374;42.742;23.266;2023-07-02T05:09:03;94827.28;;;20.67;100.00
10652;BME280;5374;42.742;23.266;2023-07-02T05:11:50;94841.78;;;20.83;100.00
10652;BME280;5374;42.742;23.266;2023-07-02T05:14:38;94847.97;;;20.83;100.00
10652;BME280;5374;42.742;23.266;2023-07-02T05:17:25;94843.34;;;20.84;100.00
10652;BME280;5374;42.742;23.266;2023-07-02T05:20:13;94838.56;;;20.90;100.00
10652;BME280;5374;42.742;23.266;2023-07-02T05:23:00;94822.41;;;20.81;100.00
10652;BME280;5374;42.742;23.266;2023-07-02T05:25:47;94815.72;;;20.87;100.00
10652;BME280;5374;42.742;23.266;2023-07-02T05:28:34;94790.25;;;20.76;100.00
10652;BME280;5374;42.742;23.266;2023-07-02T05:31:23;94836.78;;;20.94;100.00
10652;BME280;5374;42.742;23.266;2023-07-02T05:34:10;94848.19;;;20.99;100.00
10652;BME280;5374;42.742;23.266;2023-07-02T05:36:57;94840.09;;;20.99;100.00
10652;BME280;5374;42.742;23.266;2023-07-02T05:39:44;94837.72;;;20.98;100.00
10652;BME280;5374;42.742;23.266;2023-07-02T05:42:31;94850.19;;;21.02;100.00
10652;BME280;5374;42.742;23.266;2023-07-02T05:45:18;94848.88;;;21.08;100.00
10652;BME280;5374;42.742;23.266;2023-07-02T05:48:07;94848.81;;;21.17;100.00
10652;BME280;5374;42.742;23.266;2023-07-02T05:50:55;94851.78;;;21.24;100.00
10652;BME280;5374;42.742;23.266;2023-07-02T05:53:42;94855.63;;;21.23;100.00
10652;BME280;5374;42.742;23.266;2023-07-02T05:56:29;94866.47;;;21.35;100.00
10652;BME280;5374;42.742;23.266;2023-07-02T05:59:17;94858.09;;;21.49;100.00
10652;BME280;5374;42.742;23.266;2023-07-02T06:02:05;94863.34;;;21.66;100.00
10652;BME280;5374;42.742;23.266;2023-07-02T06:04:53;94857.28;;;21.81;100.00
10652;BME280;5374;42.742;23.266;2023-07-02T06:07:40;94858.94;;;22.19;100.00
10652;BME280;5374;42.742;23.266;2023-07-02T06:10:28;94847.09;;;22.60;100.00
10652;BME280;5374;42.742;23.266;2023-07-02T06:13:15;94849.56;;;22.90;100.00
10652;BME280;5374;42.742;23.266;2023-07-02T06:16:02;94845.31;;;23.16;97.70
10652;BME280;5374;42.742;23.266;2023-07-02T06:18:49;94827.19;;;23.33;88.83
10652;BME280;5374;42.742;23.266;2023-07-02T06:21:38;94827.34;;;23.52;86.30
10652;BME280;5374;42.742;23.266;2023-07-02T06:24:25;94834.44;;;23.57;82.49
10652;BME280;5374;42.742;23.266;2023-07-02T06:27:12;94835.34;;;23.61;79.07
10652;BME280;5374;42.742;23.266;2023-07-02T06:29:59;94834.03;;;23.42;79.66
10652;BME280;5374;42.742;23.266;2023-07-02T06:32:47;94835.56;;;23.56;80.58
10652;BME280;5374;42.742;23.266;2023-07-02T06:35:34;94831.75;;;23.72;77.36
10652;BME280;5374;42.742;23.266;2023-07-02T06:38:23;94824.34;;;24.01;76.48
10652;BME280;5374;42.742;23.266;2023-07-02T06:41:10;94829.69;;;24.60;73.60
10652;BME280;5374;42.742;23.266;2023-07-02T06:43:57;94819.53;;;25.11;69.78
10652;BME280;5374;42.742;23.266;2023-07-02T06:46:45;94831.06;;;25.43;68.69
10652;BME280;5374;42.742;23.266;2023-07-02T06:49:33;94828.94;;;25.52;67.63
10652;BME280;5374;42.742;23.266;2023-07-02T06:52:20;94825.81;;;25.54;67.04
10652;BME280;5374;42.742;23.266;2023-07-02T06:55:09;94807.28;;;25.79;64.98
10652;BME280;5374;42.742;23.266;2023-07-02T06:57:56;94815.72;;;26.65;62.96
10652;BME280;5374;42.742;23.266;2023-07-02T07:00:44;94811.56;;;27.31;59.33
10652;BME280;5374;42.742;23.266;2023-07-02T07:03:31;94808.03;;;27.64;57.54
10652;BME280;5374;42.742;23.266;2023-07-02T07:06:18;94809.09;;;27.89;56.33
10652;BME280;5374;42.742;23.266;2023-07-02T07:09:06;94813.66;;;27.82;57.69
10652;BME280;5374;42.742;23.266;2023-07-02T07:11:54;94810.44;;;27.69;56.69
10652;BME280;5374;42.742;23.266;2023-07-02T07:14:42;94812.44;;;28.16;56.30
10652;BME280;5374;42.742;23.266;2023-07-02T07:17:29;94797.63;;;28.17;54.53
10652;BME280;5374;42.742;23.266;2023-07-02T07:20:16;94809.97;;;28.45;54.95
10652;BME280;5374;42.742;23.266;2023-07-02T07:23:04;94802.72;;;27.75;56.47
10652;BME280;5374;42.742;23.266;2023-07-02T07:25:51;94807.38;;;28.63;55.60
10652;BME280;5374;42.742;23.266;2023-07-02T07:28:40;94822.28;;;29.41;51.33
10652;BME280;5374;42.742;23.266;2023-07-02T07:31:28;94814.16;;;29.59;51.67
10652;BME280;5374;42.742;23.266;2023-07-02T07:34:15;94800.97;;;30.25;49.21
10652;BME280;5374;42.742;23.266;2023-07-02T07:37:02;94804.13;;;30.59;47.57
10652;BME280;5374;42.742;23.266;2023-07-02T07:39:50;94802.53;;;30.47;48.31
10652;BME280;5374;42.742;23.266;2023-07-02T07:42:38;94791.13;;;29.78;51.76
10652;BME280;5374;42.742;23.266;2023-07-02T07:45:27;94799.81;;;30.47;49.13
10652;BME280;5374;42.742;23.266;2023-07-02T07:48:15;94813.50;;;30.65;47.04
10652;BME280;5374;42.742;23.266;2023-07-02T07:51:02;94814.28;;;30.69;47.06
10652;BME280;5374;42.742;23.266;2023-07-02T07:53:49;94802.94;;;30.35;48.59
10652;BME280;5374;42.742;23.266;2023-07-02T07:56:36;94815.44;;;30.50;47.91
10652;BME280;5374;42.742;23.266;2023-07-02T07:59:24;94808.78;;;30.80;46.22
10652;BME280;5374;42.742;23.266;2023-07-02T08:02:12;94819.69;;;31.08;47.69
10652;BME280;5374;42.742;23.266;2023-07-02T08:05:00;94822.84;;;31.00;45.82
10652;BME280;5374;42.742;23.266;2023-07-02T08:07:47;94815.63;;;31.52;44.75
10652;BME280;5374;42.742;23.266;2023-07-02T08:10:34;94806.38;;;31.10;46.42
10652;BME280;5374;42.742;23.266;2023-07-02T08:13:21;94823.41;;;31.75;44.23
10652;BME280;5374;42.742;23.266;2023-07-02T08:16:09;94815.53;;;31.80;46.56
10652;BME280;5374;42.742;23.266;2023-07-02T08:18:57;94815.47;;;31.87;44.45
10652;BME280;5374;42.742;23.266;2023-07-02T08:21:44;94823.56;;;31.36;45.76
10652;BME280;5374;42.742;23.266;2023-07-02T08:24:31;94801.72;;;30.08;48.04
10652;BME280;5374;42.742;23.266;2023-07-02T08:27:19;94817.25;;;29.61;50.36
10652;BME280;5374;42.742;23.266;2023-07-02T08:30:07;94820.91;;;30.01;48.52
10652;BME280;5374;42.742;23.266;2023-07-02T08:32:54;94821.34;;;30.24;48.08
10652;BME280;5374;42.742;23.266;2023-07-02T08:35:43;94807.22;;;30.18;47.32
10652;BME280;5374;42.742;23.266;2023-07-02T08:38:30;94810.91;;;29.36;51.04
10652;BME280;5374;42.742;23.266;2023-07-02T08:41:17;94813.34;;;29.62;49.92
10652;BME280;5374;42.742;23.266;2023-07-02T08:44:05;94810.91;;;29.39;50.65
10652;BME280;5374;42.742;23.266;2023-07-02T08:46:52;94803.63;;;29.79;49.18
10652;BME280;5374;42.742;23.266;2023-07-02T08:49:42;94815.69;;;29.64;49.52
10652;BME280;5374;42.742;23.266;2023-07-02T08:52:30;94800.56;;;30.16;48.09
10652;BME280;5374;42.742;23.266;2023-07-02T08:55:18;94801.75;;;30.47;47.23
10652;BME280;5374;42.742;23.266;2023-07-02T08:58:05;94801.75;;;30.68;46.91
10652;BME280;5374;42.742;23.266;2023-07-02T09:01:07;94783.31;;;30.76;47.15
10652;BME280;5374;42.742;23.266;2023-07-02T09:03:58;94804.91;;;30.59;47.29
10652;BME280;5374;42.742;23.266;2023-07-02T09:06:47;94803.97;;;29.52;48.69
10652;BME280;5374;42.742;23.266;2023-07-02T09:09:45;94789.94;;;29.75;49.37
10652;BME280;5374;42.742;23.266;2023-07-02T09:12:33;94799.72;;;29.90;47.96
10652;BME280;5374;42.742;23.266;2023-07-02T09:15:20;94804.66;;;29.39;49.56
10652;BME280;5374;42.742;23.266;2023-07-02T09:18:17;94802.03;;;29.56;49.51
10652;BME280;5374;42.742;23.266;2023-07-02T09:21:05;94796.19;;;29.86;48.84
10652;BME280;5374;42.742;23.266;2023-07-02T09:23:52;94793.44;;;29.69;50.09
10652;BME280;5374;42.742;23.266;2023-07-02T09:26:44;94798.94;;;29.83;48.79
10652;BME280;5374;42.742;23.266;2023-07-02T09:29:33;94787.28;;;30.04;48.86
10652;BME280;5374;42.742;23.266;2023-07-02T09:32:24;94784.09;;;29.94;50.05
10652;BME280;5374;42.742;23.266;2023-07-02T09:35:12;94781.41;;;30.44;46.92
10652;BME280;5374;42.742;23.266;2023-07-02T09:37:59;94772.75;;;29.78;48.39
10652;BME280;5374;42.742;23.266;2023-07-02T09:40:49;94780.22;;;30.31;51.32
10652;BME280;5374;42.742;23.266;2023-07-02T09:43:38;94789.19;;;30.78;48.36
10652;BME280;5374;42.742;23.266;2023-07-02T09:46:25;94769.25;;;30.45;47.19
10652;BME280;5374;42.742;23.266;2023-07-02T09:49:14;94777.84;;;30.76;50.22
10652;BME280;5374;42.742;23.266;2023-07-02T09:52:05;94758.63;;;30.90;46.35
10652;BME280;5374;42.742;23.266;2023-07-02T09:54:52;94775.81;;;31.15;45.50
10652;BME280;5374;42.742;23.266;2023-07-02T09:57:40;94779.00;;;30.75;47.29
10652;BME280;5374;42.742;23.266;2023-07-02T10:00:31;94761.81;;;30.42;48.11
10652;BME280;5374;42.742;23.266;2023-07-02T10:03:28;94759.41;;;30.87;45.48
10652;BME280;5374;42.742;23.266;2023-07-02T10:06:15;94768.81;;;30.93;44.14
10652;BME280;5374;42.742;23.266;2023-07-02T10:09:02;94758.91;;;31.20;44.38
10652;BME280;5374;42.742;23.266;2023-07-02T10:11:50;94766.47;;;30.81;46.06
10652;BME280;5374;42.742;23.266;2023-07-02T10:14:47;94761.44;;;30.33;45.98
10652;BME280;5374;42.742;23.266;2023-07-02T10:17:36;94760.22;;;29.91;48.43
10652;BME280;5374;42.742;23.266;2023-07-02T10:20:33;94749.75;;;28.92;50.81
10652;BME280;5374;42.742;23.266;2023-07-02T10:23:32;94746.06;;;29.40;49.74
10652;BME280;5374;42.742;23.266;2023-07-02T10:26:20;94747.72;;;29.76;48.07
10652;BME280;5374;42.742;23.266;2023-07-02T10:29:07;94738.34;;;30.31;45.72
10652;BME280;5374;42.742;23.266;2023-07-02T10:31:55;94748.06;;;30.74;44.57
10652;BME280;5374;42.742;23.266;2023-07-02T10:34:43;94744.50;;;30.95;43.95
10652;BME280;5374;42.742;23.266;2023-07-02T10:37:36;94748.31;;;31.26;42.84
10652;BME280;5374;42.742;23.266;2023-07-02T10:40:23;94746.47;;;30.94;43.78
10652;BME280;5374;42.742;23.266;2023-07-02T10:43:12;94742.06;;;31.18;44.35
10652;BME280;5374;42.742;23.266;2023-07-02T10:46:00;94753.94;;;30.87;42.34
10652;BME280;5374;42.742;23.266;2023-07-02T10:48:52;94730.44;;;30.75;43.91
10652;BME280;5374;42.742;23.266;2023-07-02T10:51:40;94741.34;;;30.97;42.59
10652;BME280;5374;42.742;23.266;2023-07-02T10:54:38;94724.69;;;31.46;44.54
10652;BME280;5374;42.742;23.266;2023-07-02T10:57:26;94722.19;;;31.73;42.58
10652;BME280;5374;42.742;23.266;2023-07-02T11:00:14;94726.00;;;31.90;40.11
10652;BME280;5374;42.742;23.266;2023-07-02T11:03:03;94732.38;;;31.76;41.12
10652;BME280;5374;42.742;23.266;2023-07-02T11:05:51;94741.94;;;31.43;40.89
10652;BME280;5374;42.742;23.266;2023-07-02T11:08:39;94742.13;;;31.11;42.54
10652;BME280;5374;42.742;23.266;2023-07-02T11:11:27;94736.31;;;30.74;43.13
10652;BME280;5374;42.742;23.266;2023-07-02T11:14:14;94747.69;;;30.51;43.37
10652;BME280;5374;42.742;23.266;2023-07-02T11:17:03;94745.38;;;29.92;46.46
10652;BME280;5374;42.742;23.266;2023-07-02T11:19:51;94766.34;;;29.39;49.58
10652;BME280;5374;42.742;23.266;2023-07-02T11:22:38;94761.38;;;28.79;51.92
10652;BME280;5374;42.742;23.266;2023-07-02T11:25:28;94754.28;;;28.12;54.05
10652;BME280;5374;42.742;23.266;2023-07-02T11:28:15;94759.53;;;27.87;54.93
10652;BME280;5374;42.742;23.266;2023-07-02T11:31:02;94761.25;;;27.62;55.77
10652;BME280;5374;42.742;23.266;2023-07-02T11:33:51;94760.13;;;27.67;56.12
10652;BME280;5374;42.742;23.266;2023-07-02T11:36:38;94754.47;;;27.86;54.88
10652;BME280;5374;42.742;23.266;2023-07-02T11:39:25;94748.34;;;28.00;52.95
10652;BME280;5374;42.742;23.266;2023-07-02T11:42:14;94754.63;;;28.07;52.36
10652;BME280;5374;42.742;23.266;2023-07-02T11:45:01;94753.06;;;28.06;49.29
10652;BME280;5374;42.742;23.266;2023-07-02T11:47:48;94749.28;;;28.18;49.56
10652;BME280;5374;42.742;23.266;2023-07-02T11:50:36;94763.72;;;28.18;54.82
10652;BME280;5374;42.742;23.266;2023-07-02T11:53:23;94767.84;;;28.02;56.32
10652;BME280;5374;42.742;23.266;2023-07-02T11:56:10;94754.84;;;27.84;57.59
10652;BME280;5374;42.742;23.266;2023-07-02T11:59:00;94766.03;;;27.72;56.95
10652;BME280;5374;42.742;23.266;2023-07-02T12:01:47;94761.50;;;27.50;58.33
10652;BME280;5374;42.742;23.266;2023-07-02T12:04:34;94760.84;;;27.27;57.87
10652;BME280;5374;42.742;23.266;2023-07-02T12:07:21;94758.31;;;27.07;59.49
10652;BME280;5374;42.742;23.266;2023-07-02T12:10:09;94751.06;;;26.92;61.18
10652;BME280;5374;42.742;23.266;2023-07-02T12:12:56;94748.16;;;26.78;63.51
10652;BME280;5374;42.742;23.266;2023-07-02T12:15:44;94735.09;;;26.61;65.23
10652;BME280;5374;42.742;23.266;2023-07-02T12:18:32;94742.28;;;27.02;70.08
10652;BME280;5374;42.742;23.266;2023-07-02T12:21:20;94739.97;;;27.41;72.13
10652;BME280;5374;42.742;23.266;2023-07-02T12:24:07;94742.31;;;27.43;69.97
10652;BME280;5374;42.742;23.266;2023-07-02T12:26:55;94751.13;;;27.63;68.72
10652;BME280;5374;42.742;23.266;2023-07-02T12:29:42;94751.34;;;27.87;66.63
10652;BME280;5374;42.742;23.266;2023-07-02T12:32:31;94745.56;;;28.40;65.18
10652;BME280;5374;42.742;23.266;2023-07-02T12:35:18;94764.44;;;28.70;59.01
10652;BME280;5374;42.742;23.266;2023-07-02T12:38:05;94749.81;;;29.00;58.58
10652;BME280;5374;42.742;23.266;2023-07-02T12:40:53;94747.53;;;29.19;55.06
10652;BME280;5374;42.742;23.266;2023-07-02T12:43:41;94743.34;;;29.43;53.37
10652;BME280;5374;42.742;23.266;2023-07-02T12:46:28;94734.78;;;29.66;51.77
10652;BME280;5374;42.742;23.266;2023-07-02T12:49:16;94748.47;;;29.73;51.76
10652;BME280;5374;42.742;23.266;2023-07-02T12:52:03;94748.84;;;29.57;52.30
10652;BME280;5374;42.742;23.266;2023-07-02T12:54:51;94744.53;;;29.60;51.86
10652;BME280;5374;42.742;23.266;2023-07-02T12:57:38;94743.81;;;29.91;51.93
10652;BME280;5374;42.742;23.266;2023-07-02T13:00:25;94750.09;;;30.17;48.55
10652;BME280;5374;42.742;23.266;2023-07-02T13:03:13;94734.06;;;30.22;48.08
10652;BME280;5374;42.742;23.266;2023-07-02T13:06:01;94743.81;;;30.34;49.15
10652;BME280;5374;42.742;23.266;2023-07-02T13:08:48;94716.44;;;30.13;48.48
10652;BME280;5374;42.742;23.266;2023-07-02T13:11:35;94735.63;;;30.09;48.48
10652;BME280;5374;42.742;23.266;2023-07-02T13:14:24;94737.56;;;29.94;48.93
10652;BME280;5374;42.742;23.266;2023-07-02T13:17:11;94729.69;;;29.68;49.48
10652;BME280;5374;42.742;23.266;2023-07-02T13:19:58;94724.91;;;29.30;50.19
10652;BME280;5374;42.742;23.266;2023-07-02T13:22:46;94714.25;;;29.00;51.41
10652;BME280;5374;42.742;23.266;2023-07-02T13:25:33;94723.09;;;28.75;52.19
10652;BME280;5374;42.742;23.266;2023-07-02T13:28:21;94723.34;;;28.45;54.27
10652;BME280;5374;42.742;23.266;2023-07-02T13:31:09;94719.59;;;28.13;52.83
10652;BME280;5374;42.742;23.266;2023-07-02T13:33:57;94729.19;;;27.92;51.87
10652;BME280;5374;42.742;23.266;2023-07-02T13:36:44;94725.03;;;27.65;53.69
10652;BME280;5374;42.742;23.266;2023-07-02T13:39:32;94722.91;;;27.48;55.05
10652;BME280;5374;42.742;23.266;2023-07-02T13:42:20;94710.25;;;27.29;57.62
10652;BME280;5374;42.742;23.266;2023-07-02T13:45:08;94720.63;;;27.16;59.63
10652;BME280;5374;42.742;23.266;2023-07-02T13:47:55;94726.25;;;26.97;61.89
10652;BME280;5374;42.742;23.266;2023-07-02T13:50:42;94726.75;;;26.76;63.52
10652;BME280;5374;42.742;23.266;2023-07-02T13:53:29;94725.03;;;26.65;65.20
10652;BME280;5374;42.742;23.266;2023-07-02T13:56:19;94731.97;;;26.59;63.99
10652;BME280;5374;42.742;23.266;2023-07-02T13:59:08;94734.38;;;26.64;62.14
10652;BME280;5374;42.742;23.266;2023-07-02T14:01:55;94739.06;;;26.67;62.70
10652;BME280;5374;42.742;23.266;2023-07-02T14:04:43;94728.09;;;26.60;62.28
10652;BME280;5374;42.742;23.266;2023-07-02T14:07:32;94737.47;;;26.62;63.34
10652;BME280;5374;42.742;23.266;2023-07-02T14:10:19;94723.31;;;26.53;63.36
10652;BME280;5374;42.742;23.266;2023-07-02T14:13:06;94719.03;;;26.52;63.30
10652;BME280;5374;42.742;23.266;2023-07-02T14:15:55;94724.69;;;26.40;63.85
10652;BME280;5374;42.742;23.266;2023-07-02T14:18:43;94723.13;;;26.39;64.34
10652;BME280;5374;42.742;23.266;2023-07-02T14:21:30;94710.00;;;26.21;63.77
10652;BME280;5374;42.742;23.266;2023-07-02T14:24:17;94718.78;;;26.34;64.30
10652;BME280;5374;42.742;23.266;2023-07-02T14:27:05;94722.94;;;26.28;62.71
10652;BME280;5374;42.742;23.266;2023-07-02T14:29:52;94726.59;;;26.13;63.25
10652;BME280;5374;42.742;23.266;2023-07-02T14:32:40;94721.41;;;26.04;63.30
10652;BME280;5374;42.742;23.266;2023-07-02T14:35:29;94729.56;;;26.04;63.38
10652;BME280;5374;42.742;23.266;2023-07-02T14:38:16;94728.84;;;26.07;63.66
10652;BME280;5374;42.742;23.266;2023-07-02T14:41:04;94740.63;;;26.15;64.09
10652;BME280;5374;42.742;23.266;2023-07-02T14:43:51;94744.06;;;26.35;63.02